Time;durP1;ratioP1;P1;durP2;ratioP2;P2;SDS_P1;SDS_P2;PMS_P1;PMS_P2;Temp;Humidity;BMP_temperature;BMP_pressure;BME280_temperature;BME280_humidity;BME280_pressure;Samples;Min_cycle;Max_cycle;Signal;HPM_P1;HPM_P2
2020/12/22 00:00:53;;;;;;;15.35;8.10;;;-0.80;99.90;;;;;;4976024;28;20042;-80
2020/12/22 00:03:18;;;;;;;13.85;7.47;;;-0.80;99.90;;;;;;4974332;28;20034;-79
2020/12/22 00:05:45;;;;;;;19.13;8.43;;;-0.90;99.90;;;;;;4958437;28;20027;-80
2020/12/22 00:08:12;;;;;;;23.83;10.10;;;-1.00;99.90;;;;;;4975297;28;20034;-79
2020/12/22 00:10:37;;;;;;;21.58;9.45;;;-1.00;99.90;;;;;;4975372;28;20023;-81
2020/12/22 00:13:03;;;;;;;22.88;9.45;;;-1.00;99.90;;;;;;4974242;28;20062;-79
2020/12/22 00:15:29;;;;;;;11.55;6.50;;;-1.00;99.90;;;;;;4975400;28;20466;-79
2020/12/22 00:17:55;;;;;;;12.65;6.75;;;-1.00;99.90;;;;;;4973781;28;20027;-80
2020/12/22 00:20:20;;;;;;;13.88;7.68;;;-1.10;99.90;;;;;;4974832;28;20228;-80
2020/12/22 00:22:49;;;;;;;14.10;7.55;;;-1.20;99.90;;;;;;4974901;28;20027;-79
2020/12/22 00:25:15;;;;;;;21.70;10.57;;;-1.20;99.90;;;;;;4975171;28;20048;-79
2020/12/22 00:27:40;;;;;;;20.60;10.30;;;-1.20;99.90;;;;;;4975230;28;20517;-79
2020/12/22 00:30:06;;;;;;;12.60;7.18;;;-1.10;99.90;;;;;;4975218;28;20033;-80
2020/12/22 00:32:33;;;;;;;18.80;9.93;;;-1.10;99.90;;;;;;4975462;28;20035;-80
2020/12/22 00:34:59;;;;;;;18.45;9.60;;;-1.10;99.90;;;;;;4975191;28;20026;-79
2020/12/22 00:37:24;;;;;;;23.35;11.25;;;-1.00;99.90;;;;;;4974561;28;20031;-80
2020/12/22 00:39:50;;;;;;;17.08;8.23;;;-1.00;99.90;;;;;;4974829;28;20529;-80
2020/12/22 00:42:16;;;;;;;18.88;9.88;;;-1.00;99.90;;;;;;4975188;28;20102;-79
2020/12/22 00:44:41;;;;;;;26.40;10.60;;;-1.00;99.90;;;;;;4975155;28;20081;-79
2020/12/22 00:47:07;;;;;;;31.30;13.85;;;-1.00;99.90;;;;;;4975037;28;20037;-80
2020/12/22 00:49:33;;;;;;;25.52;11.10;;;-1.00;99.90;;;;;;4975078;28;20492;-79
2020/12/22 00:51:59;;;;;;;25.20;11.15;;;-1.00;99.90;;;;;;4975120;28;20046;-79
2020/12/22 00:54:26;;;;;;;23.67;9.63;;;-1.00;99.90;;;;;;4974112;28;20046;-80
2020/12/22 00:56:52;;;;;;;27.08;10.75;;;-1.10;99.90;;;;;;4974654;28;20038;-79
2020/12/22 00:59:18;;;;;;;22.95;11.48;;;-1.10;99.90;;;;;;4974594;28;20026;-79
2020/12/22 01:01:44;;;;;;;23.50;10.98;;;-1.20;99.90;;;;;;4974777;28;20026;-79
2020/12/22 01:04:09;;;;;;;21.02;11.05;;;-1.20;99.90;;;;;;4974570;28;20023;-80
2020/12/22 01:06:39;;;;;;;19.40;9.65;;;-1.20;99.90;;;;;;4974724;28;20098;-80
2020/12/22 01:09:06;;;;;;;21.70;11.27;;;-1.20;99.90;;;;;;4974391;28;20034;-80
2020/12/22 01:11:34;;;;;;;20.63;10.48;;;-1.20;99.90;;;;;;4974203;28;20059;-81
2020/12/22 01:13:59;;;;;;;24.00;10.25;;;-1.20;99.90;;;;;;4974451;28;20047;-79
2020/12/22 01:16:25;;;;;;;19.73;9.98;;;-1.20;99.90;;;;;;4974275;28;20097;-81
2020/12/22 01:18:51;;;;;;;25.67;12.88;;;-1.20;99.90;;;;;;4972882;28;20070;-80
2020/12/22 01:21:21;;;;;;;19.88;10.18;;;-1.20;99.90;;;;;;4973931;28;20034;-80
2020/12/22 01:23:47;;;;;;;21.00;11.35;;;-1.20;99.90;;;;;;4973698;28;20496;-80
2020/12/22 01:26:17;;;;;;;24.52;12.15;;;-1.20;99.90;;;;;;4974284;28;20153;-80
2020/12/22 01:28:42;;;;;;;23.05;11.32;;;-1.20;99.90;;;;;;4974599;28;20038;-80
2020/12/22 01:31:08;;;;;;;23.50;10.90;;;-1.20;99.90;;;;;;4973323;28;20042;-80
2020/12/22 01:33:34;;;;;;;19.75;9.73;;;-1.20;99.90;;;;;;4974321;28;20102;-80
2020/12/22 01:35:59;;;;;;;19.83;11.07;;;-1.20;99.90;;;;;;4974388;28;20530;-79
2020/12/22 01:38:25;;;;;;;22.23;11.43;;;-1.20;99.90;;;;;;4974248;28;20035;-79
2020/12/22 01:40:51;;;;;;;22.45;11.45;;;-1.30;99.90;;;;;;4974229;28;20027;-79
2020/12/22 01:43:16;;;;;;;20.73;10.77;;;-1.30;99.90;;;;;;4973998;28;20023;-79
2020/12/22 01:45:42;;;;;;;21.80;11.18;;;-1.30;99.90;;;;;;4974192;28;20034;-80
2020/12/22 01:48:09;;;;;;;26.67;12.73;;;-1.30;99.90;;;;;;4974145;28;20436;-80
2020/12/22 01:50:35;;;;;;;24.85;12.98;;;-1.30;99.90;;;;;;4973966;28;20026;-79
2020/12/22 01:53:01;;;;;;;24.58;11.95;;;-1.20;99.90;;;;;;4973865;28;20038;-80
2020/12/22 01:55:26;;;;;;;25.83;12.57;;;-1.20;99.90;;;;;;4973990;28;20106;-79
2020/12/22 01:57:52;;;;;;;30.38;14.88;;;-1.20;99.90;;;;;;4974897;28;20477;-79
2020/12/22 02:00:18;;;;;;;27.83;14.05;;;-1.30;99.90;;;;;;4974166;28;20062;-79
2020/12/22 02:02:43;;;;;;;27.88;13.98;;;-1.30;99.90;;;;;;4974322;28;20023;-80
2020/12/22 02:05:09;;;;;;;28.05;14.50;;;-1.30;99.90;;;;;;4973845;28;20033;-78
2020/12/22 02:07:36;;;;;;;28.52;14.18;;;-1.30;99.90;;;;;;4973956;28;20389;-78
2020/12/22 02:10:03;;;;;;;29.27;14.35;;;-1.30;99.90;;;;;;4973999;28;20542;-79
2020/12/22 02:12:29;;;;;;;31.70;15.05;;;-1.30;99.90;;;;;;4972482;28;20046;-79
2020/12/22 02:14:55;;;;;;;28.33;14.18;;;-1.30;99.90;;;;;;4973814;28;20152;-79
2020/12/22 02:17:21;;;;;;;34.78;15.60;;;-1.30;99.90;;;;;;4973929;28;20031;-79
2020/12/22 02:19:46;;;;;;;27.73;13.88;;;-1.30;99.90;;;;;;4974007;28;20516;-79
2020/12/22 02:22:12;;;;;;;27.42;14.63;;;-1.30;99.90;;;;;;4974120;28;20110;-79
2020/12/22 02:24:38;;;;;;;27.15;14.00;;;-1.30;99.90;;;;;;4973971;28;20031;-80
2020/12/22 02:27:04;;;;;;;31.85;15.15;;;-1.30;99.90;;;;;;4974266;28;20027;-79
2020/12/22 02:29:32;;;;;;;38.22;16.67;;;-1.30;99.90;;;;;;4974016;28;20504;-79
2020/12/22 02:31:58;;;;;;;31.80;15.73;;;-1.30;99.90;;;;;;4956728;28;20031;-80
2020/12/22 02:34:25;;;;;;;33.60;15.40;;;-1.30;99.90;;;;;;4974409;28;20061;-79
2020/12/22 02:36:50;;;;;;;43.17;17.52;;;-1.30;99.90;;;;;;4974714;28;20030;-79
2020/12/22 02:39:16;;;;;;;35.78;17.00;;;-1.30;99.90;;;;;;4974271;28;20059;-81
2020/12/22 02:41:42;;;;;;;39.30;16.85;;;-1.30;99.90;;;;;;4975424;28;20031;-80
2020/12/22 02:44:07;;;;;;;37.53;16.40;;;-1.20;99.90;;;;;;4974354;28;20044;-80
2020/12/22 02:46:33;;;;;;;39.63;17.67;;;-1.30;99.90;;;;;;4973838;28;20358;-80
2020/12/22 02:49:01;;;;;;;33.97;16.17;;;-1.30;99.90;;;;;;4973844;28;20031;-80
2020/12/22 02:51:30;;;;;;;37.25;17.80;;;-1.30;99.90;;;;;;4974041;28;20551;-79
2020/12/22 02:53:55;;;;;;;38.30;18.45;;;-1.30;99.90;;;;;;4973955;28;20034;-79
2020/12/22 02:56:21;;;;;;;38.05;17.77;;;-1.30;99.90;;;;;;4974121;28;20090;-78
2020/12/22 02:58:50;;;;;;;33.53;16.42;;;-1.30;99.90;;;;;;4973517;28;20480;-78
2020/12/22 03:01:16;;;;;;;38.00;17.25;;;-1.30;99.90;;;;;;4988961;28;20030;-78
2020/12/22 03:03:41;;;;;;;41.58;18.38;;;-1.30;99.90;;;;;;4998894;28;20058;-78
2020/12/22 03:06:07;;;;;;;37.83;17.65;;;-1.30;99.90;;;;;;4996870;28;20038;-78
2020/12/22 03:08:33;;;;;;;40.55;18.52;;;-1.30;99.90;;;;;;4978049;28;20060;-79
2020/12/22 03:10:59;;;;;;;35.72;17.02;;;-1.20;99.90;;;;;;4978422;28;20034;-78
2020/12/22 03:13:24;;;;;;;40.47;18.42;;;-1.20;99.90;;;;;;4956956;28;20047;-78
2020/12/22 03:15:50;;;;;;;40.15;17.60;;;-1.20;99.90;;;;;;4957518;28;20039;-79
2020/12/22 03:18:18;;;;;;;45.47;18.95;;;-1.20;99.90;;;;;;4957164;29;20755;-80
2020/12/22 03:20:44;;;;;;;46.42;19.55;;;-1.20;99.90;;;;;;4957075;28;20023;-79
2020/12/22 03:23:11;;;;;;;47.88;19.33;;;-1.30;99.90;;;;;;4957299;29;20031;-79
2020/12/22 03:25:37;;;;;;;39.38;17.38;;;-1.30;99.90;;;;;;4956085;29;20035;-79
2020/12/22 03:28:03;;;;;;;47.67;19.90;;;-1.20;99.90;;;;;;4956914;29;20098;-79
2020/12/22 03:30:28;;;;;;;48.85;19.08;;;-1.20;99.90;;;;;;4956916;28;20031;-79
2020/12/22 03:32:54;;;;;;;42.00;18.58;;;-1.20;99.90;;;;;;4956703;29;20035;-79
2020/12/22 03:35:20;;;;;;;48.15;20.02;;;-1.20;99.90;;;;;;4956828;29;20578;-79
2020/12/22 03:37:46;;;;;;;47.67;19.88;;;-1.30;99.90;;;;;;4956652;29;20035;-80
2020/12/22 03:40:12;;;;;;;49.45;20.80;;;-1.20;99.90;;;;;;4956870;29;20033;-79
2020/12/22 03:42:39;;;;;;;53.50;21.60;;;-1.30;99.90;;;;;;4956792;28;20031;-80
2020/12/22 03:45:06;;;;;;;45.53;19.98;;;-1.20;99.90;;;;;;4957320;29;20106;-80
2020/12/22 03:47:33;;;;;;;51.28;20.42;;;-1.10;99.90;;;;;;4957363;29;20032;-81
2020/12/22 03:49:59;;;;;;;53.65;21.25;;;-1.10;99.90;;;;;;4956872;29;20031;-74
2020/12/22 03:52:24;;;;;;;45.22;20.40;;;-1.00;99.90;;;;;;4955712;29;20038;-74
2020/12/22 03:54:50;;;;;;;45.80;19.58;;;-0.90;99.90;;;;;;4955716;28;20051;-74
2020/12/22 03:57:16;;;;;;;45.53;19.83;;;-0.80;99.90;;;;;;4954454;29;20082;-74
2020/12/22 03:59:43;;;;;;;46.58;20.38;;;-0.80;99.90;;;;;;4954280;29;20126;-73
2020/12/22 04:02:09;;;;;;;44.10;20.40;;;-0.70;99.90;;;;;;4955622;28;20102;-73
2020/12/22 04:04:34;;;;;;;49.65;20.38;;;-0.60;99.90;;;;;;4955361;29;20115;-73
2020/12/22 04:07:00;;;;;;;50.72;21.13;;;-0.50;99.90;;;;;;4955281;29;20032;-73
2020/12/22 04:09:26;;;;;;;50.58;20.10;;;-0.40;99.90;;;;;;4955204;29;20031;-74
2020/12/22 04:11:52;;;;;;;51.00;20.52;;;-0.40;99.90;;;;;;4954066;28;20038;-72
2020/12/22 04:14:19;;;;;;;47.40;18.88;;;-0.40;99.90;;;;;;4965640;28;20078;-80
2020/12/22 04:16:46;;;;;;;56.03;21.77;;;-0.50;99.90;;;;;;4958884;28;20085;-81
2020/12/22 04:19:11;;;;;;;51.15;20.10;;;-0.60;99.90;;;;;;4976220;28;20039;-80
2020/12/22 04:21:38;;;;;;;53.63;21.80;;;-0.60;99.90;;;;;;4976164;28;20031;-81
2020/12/22 04:24:04;;;;;;;53.72;23.00;;;-0.60;99.90;;;;;;4975789;28;20030;-81
2020/12/22 04:26:31;;;;;;;50.50;21.38;;;-0.70;99.90;;;;;;4976267;28;20677;-81
2020/12/22 04:28:57;;;;;;;46.63;22.48;;;-0.70;99.90;;;;;;4975947;28;20026;-81
2020/12/22 04:31:22;;;;;;;53.25;21.52;;;-0.70;99.90;;;;;;4975813;28;20061;-81
2020/12/22 04:33:50;;;;;;;51.83;21.95;;;-0.60;99.90;;;;;;4974502;28;20031;-81
2020/12/22 04:36:16;;;;;;;43.17;21.65;;;-0.60;99.90;;;;;;4975654;28;20041;-81
2020/12/22 04:38:42;;;;;;;52.95;21.63;;;-0.50;99.90;;;;;;4975121;28;20047;-81
2020/12/22 04:41:12;;;;;;;47.88;20.73;;;-0.50;99.90;;;;;;4975430;28;20027;-81
2020/12/22 04:43:42;;;;;;;52.35;22.80;;;-0.50;99.90;;;;;;4975263;28;20093;-81
2020/12/22 04:46:08;;;;;;;58.10;23.73;;;-0.50;99.90;;;;;;4974131;28;20653;-81
2020/12/22 04:48:39;;;;;;;51.70;23.08;;;-0.40;99.90;;;;;;4957786;28;20461;-81
2020/12/22 04:51:06;;;;;;;60.75;24.25;;;-0.40;99.90;;;;;;4973864;28;20429;-82
2020/12/22 04:53:33;;;;;;;47.92;21.67;;;-0.30;99.90;;;;;;4974959;28;20105;-80
2020/12/22 04:56:04;;;;;;;50.00;23.17;;;-0.30;99.90;;;;;;4974830;28;20063;-80
2020/12/22 04:58:30;;;;;;;49.83;21.50;;;-0.30;99.90;;;;;;4973582;28;20027;-80
2020/12/22 05:00:57;;;;;;;57.42;22.88;;;-0.30;99.90;;;;;;4974680;28;20078;-79
2020/12/22 05:03:23;;;;;;;55.10;23.67;;;-0.30;99.90;;;;;;4974420;28;20031;-81
2020/12/22 05:05:50;;;;;;;54.72;22.77;;;-0.30;99.90;;;;;;4974116;28;20421;-81
2020/12/22 05:08:16;;;;;;;49.75;23.17;;;-0.40;99.90;;;;;;4973802;28;20023;-80
2020/12/22 05:10:43;;;;;;;50.22;21.65;;;-0.40;99.90;;;;;;4974979;28;20038;-80
2020/12/22 05:13:10;;;;;;;52.45;22.85;;;-0.50;99.90;;;;;;4972371;28;20497;-81
2020/12/22 05:15:39;;;;;;;59.75;23.55;;;-0.50;99.90;;;;;;4975490;28;20031;-80
2020/12/22 05:18:06;;;;;;;52.70;23.27;;;-0.50;99.90;;;;;;4971780;28;20057;-74
2020/12/22 05:20:31;;;;;;;48.92;22.67;;;-0.50;99.90;;;;;;4972227;28;20539;-73
2020/12/22 05:22:57;;;;;;;55.67;23.35;;;-0.50;99.90;;;;;;4972406;28;20109;-73
2020/12/22 05:25:23;;;;;;;50.05;21.92;;;-0.50;99.90;;;;;;4973103;28;20481;-73
2020/12/22 05:27:52;;;;;;;54.45;23.23;;;-0.50;99.90;;;;;;4973037;28;20038;-73
2020/12/22 05:30:19;;;;;;;48.20;21.90;;;-0.60;99.90;;;;;;4972953;28;20031;-73
2020/12/22 05:32:50;;;;;;;60.63;24.20;;;-0.60;99.90;;;;;;4972473;28;20034;-74
2020/12/22 05:35:17;;;;;;;61.67;24.88;;;-0.60;99.90;;;;;;4972211;28;20522;-74
2020/12/22 05:37:46;;;;;;;49.42;22.02;;;-0.60;99.90;;;;;;4972173;28;20086;-73
2020/12/22 05:40:13;;;;;;;54.88;23.77;;;-0.60;99.90;;;;;;4972493;28;20085;-75
2020/12/22 05:42:39;;;;;;;52.72;23.40;;;-0.50;99.90;;;;;;4972041;28;20019;-73
2020/12/22 05:45:06;;;;;;;62.17;25.52;;;-0.50;99.90;;;;;;4972008;28;20462;-80
2020/12/22 05:47:32;;;;;;;50.90;23.30;;;-0.40;99.90;;;;;;4955811;28;20378;-80
2020/12/22 05:49:59;;;;;;;54.72;23.65;;;-0.40;99.90;;;;;;4973814;28;20066;-81
2020/12/22 05:52:29;;;;;;;54.95;23.42;;;-0.50;99.90;;;;;;4971563;28;20077;-81
2020/12/22 05:54:57;;;;;;;66.32;25.65;;;-0.50;99.90;;;;;;4973203;28;20093;-81
2020/12/22 05:57:30;;;;;;;57.08;24.60;;;-0.60;99.90;;;;;;4973189;28;20513;-79
2020/12/22 05:59:56;;;;;;;62.33;24.05;;;-0.60;99.90;;;;;;4973033;28;20042;-79
2020/12/22 06:02:30;;;;;;;55.85;23.73;;;-0.50;99.90;;;;;;4972732;28;20069;-79
2020/12/22 06:05:03;;;;;;;57.35;25.08;;;-0.60;99.90;;;;;;4972943;28;20082;-83
2020/12/22 06:07:29;;;;;;;62.75;26.67;;;-0.50;99.90;;;;;;4971831;28;20027;-79
2020/12/22 06:09:56;;;;;;;51.20;24.40;;;-0.50;99.90;;;;;;4971795;28;20035;-76
2020/12/22 06:12:23;;;;;;;60.03;24.35;;;-0.50;99.90;;;;;;4971759;28;20031;-75
2020/12/22 06:14:53;;;;;;;52.38;23.08;;;-0.40;99.90;;;;;;4971840;28;20055;-79
2020/12/22 06:17:20;;;;;;;50.95;22.75;;;-0.40;99.90;;;;;;4971925;28;20173;-76
2020/12/22 06:19:47;;;;;;;55.05;22.48;;;-0.30;99.90;;;;;;4971224;28;20342;-75
2020/12/22 06:22:18;;;;;;;56.28;23.38;;;-0.30;99.90;;;;;;4971737;28;20031;-76
2020/12/22 06:24:45;;;;;;;55.92;23.30;;;-0.30;99.90;;;;;;4971517;28;20033;-77
2020/12/22 06:27:13;;;;;;;58.35;24.55;;;-0.30;99.90;;;;;;4971073;28;20099;-78
2020/12/22 06:29:43;;;;;;;55.90;24.42;;;-0.30;99.90;;;;;;4971490;28;20031;-76
2020/12/22 06:32:23;;;;;;;60.67;26.13;;;-0.30;99.90;;;;;;4981251;28;20038;-84
2020/12/22 06:34:50;;;;;;;56.83;24.50;;;-0.30;99.90;;;;;;4978864;28;20034;-84
2020/12/22 06:37:15;;;;;;;58.60;24.88;;;-0.30;99.90;;;;;;4976846;28;20162;-84
2020/12/22 06:39:45;;;;;;;61.78;25.92;;;-0.30;99.90;;;;;;4976708;28;20077;-85
2020/12/22 06:42:31;;;;;;;59.63;27.00;;;-0.30;99.90;;;;;;4976965;28;20030;-85
2020/12/22 06:45:23;;;;;;;55.75;26.15;;;-0.30;99.90;;;;;;4976595;28;20070;-84
2020/12/22 06:47:50;;;;;;;76.68;32.00;;;-0.20;99.90;;;;;;4971676;28;20046;-83
2020/12/22 06:50:41;;;;;;;69.93;30.17;;;-0.20;99.90;;;;;;4976544;28;20043;-81
2020/12/22 06:53:27;;;;;;;59.25;25.20;;;-0.20;99.90;;;;;;4974203;28;20130;-81
2020/12/22 06:55:54;;;;;;;73.38;28.65;;;-0.20;99.90;;;;;;4968403;28;20043;-80
2020/12/22 06:58:39;;;;;;;60.22;27.60;;;-0.10;99.90;;;;;;4975054;28;20035;-81
2020/12/22 07:01:26;;;;;;;64.88;28.88;;;-0.10;99.90;;;;;;4975030;28;20130;-76
2020/12/22 07:04:30;;;;;;;65.00;27.10;;;-0.20;99.90;;;;;;4975071;28;20109;-80
2020/12/22 07:06:59;;;;;;;62.50;26.58;;;-0.20;99.90;;;;;;4966456;28;20028;-81
2020/12/22 07:09:34;;;;;;;63.58;25.02;;;-0.20;99.90;;;;;;4974341;28;20027;-80
2020/12/22 07:12:09;;;;;;;59.13;25.23;;;-0.20;99.90;;;;;;4973231;28;20026;-81
2020/12/22 07:14:48;;;;;;;53.70;25.75;;;-0.20;99.90;;;;;;4974191;28;20058;-80
2020/12/22 07:17:18;;;;;;;83.82;33.95;;;-0.20;99.90;;;;;;4974507;28;20026;-81
2020/12/22 07:19:49;;;;;;;60.35;26.45;;;-0.20;99.90;;;;;;4974549;28;20089;-80
2020/12/22 07:22:16;;;;;;;48.58;23.15;;;-0.30;99.90;;;;;;4973123;28;20027;-75
2020/12/22 07:24:42;;;;;;;52.20;23.75;;;-0.30;99.90;;;;;;4974151;28;20417;-77
2020/12/22 07:27:08;;;;;;;55.28;23.08;;;-0.30;99.90;;;;;;4974873;28;20043;-77
2020/12/22 07:29:38;;;;;;;65.10;27.83;;;-0.30;99.90;;;;;;4974363;28;20027;-76
2020/12/22 07:32:05;;;;;;;62.45;28.63;;;-0.30;99.90;;;;;;4974192;28;20041;-74
2020/12/22 07:34:32;;;;;;;61.17;24.60;;;-0.40;99.90;;;;;;4974838;28;20062;-75
2020/12/22 07:37:08;;;;;;;60.03;25.55;;;-0.30;99.90;;;;;;4974198;28;20369;-76
2020/12/22 07:39:35;;;;;;;58.97;25.92;;;-0.30;99.90;;;;;;4956927;28;20113;-75
2020/12/22 07:42:27;;;;;;;80.70;31.63;;;-0.40;99.90;;;;;;4973976;28;20075;-74
2020/12/22 07:44:53;;;;;;;63.03;27.48;;;-0.30;99.90;;;;;;4971554;28;20035;-76
2020/12/22 07:47:19;;;;;;;73.35;27.88;;;-0.30;99.90;;;;;;4973612;28;20366;-75
2020/12/22 07:49:44;;;;;;;68.80;27.33;;;-0.30;99.90;;;;;;4974212;28;20034;-76
2020/12/22 07:52:17;;;;;;;57.85;25.02;;;-0.30;99.90;;;;;;4956043;28;20030;-75
2020/12/22 07:54:42;;;;;;;;;;;-0.30;99.90;;;;;;4974302;28;20579;-77
2020/12/22 07:57:10;;;;;;;51.28;23.13;;;-0.30;99.90;;;;;;4956604;28;19910;-75
2020/12/22 07:59:36;;;;;;;55.40;23.60;;;-0.30;99.90;;;;;;4973433;28;20027;-78
2020/12/22 08:02:02;;;;;;;55.05;25.40;;;-0.30;99.90;;;;;;4973895;28;20019;-79
2020/12/22 08:04:28;;;;;;;62.80;26.30;;;-0.20;99.90;;;;;;4973715;28;20033;-80
2020/12/22 08:07:02;;;;;;;65.05;26.05;;;-0.10;99.90;;;;;;4973757;28;20023;-81
2020/12/22 08:09:36;;;;;;;55.38;24.40;;;0.00;99.90;;;;;;4974173;28;20078;-81
2020/12/22 08:12:07;;;;;;;54.78;24.63;;;0.00;99.90;;;;;;4972755;28;20088;-82
2020/12/22 08:14:37;;;;;;;69.18;28.75;;;-0.10;99.90;;;;;;4972271;28;20485;-81
2020/12/22 08:17:13;;;;;;;53.45;25.55;;;-0.10;99.90;;;;;;4973359;28;20504;-80
2020/12/22 08:19:42;;;;;;;57.15;25.20;;;-0.10;99.90;;;;;;4973871;28;20162;-83
2020/12/22 08:22:12;;;;;;;60.03;25.90;;;-0.10;99.90;;;;;;4973810;28;20039;-83
2020/12/22 08:24:39;;;;;;;52.17;24.85;;;-0.10;99.90;;;;;;4973805;28;20029;-81
2020/12/22 08:27:05;;;;;;;56.08;25.48;;;0.00;99.90;;;;;;4973466;28;20034;-82
2020/12/22 08:29:31;;;;;;;52.60;22.77;;;0.00;99.90;;;;;;4972532;28;20027;-81
2020/12/22 08:32:00;;;;;;;56.35;24.45;;;-0.10;99.90;;;;;;4974139;28;20022;-80
2020/12/22 08:34:26;;;;;;;65.90;28.85;;;-0.10;99.90;;;;;;4973332;28;20409;-78
2020/12/22 08:36:51;;;;;;;75.50;30.92;;;-0.10;99.90;;;;;;4973313;28;20346;-80
2020/12/22 08:39:27;;;;;;;74.70;31.40;;;-0.10;99.90;;;;;;4973671;28;20031;-82
2020/12/22 08:41:58;;;;;;;73.55;31.90;;;-0.10;99.90;;;;;;4973304;28;20027;-81
2020/12/22 08:44:25;;;;;;;83.13;34.95;;;-0.10;99.90;;;;;;4973237;28;20030;-80
2020/12/22 08:46:53;;;;;;;81.68;33.13;;;-0.10;99.90;;;;;;4973383;28;20086;-81
2020/12/22 08:49:26;;;;;;;87.38;36.63;;;-0.10;99.90;;;;;;4972434;28;20110;-74
2020/12/22 08:51:56;;;;;;;66.80;29.73;;;-0.10;99.90;;;;;;4972792;28;20108;-76
2020/12/22 08:54:28;;;;;;;65.78;28.38;;;-0.10;99.90;;;;;;4972932;28;20027;-75
2020/12/22 08:57:17;;;;;;;65.47;27.60;;;-0.10;99.90;;;;;;4971882;28;20027;-74
2020/12/22 08:59:45;;;;;;;68.10;29.02;;;-0.10;99.90;;;;;;4972944;28;20031;-84
2020/12/22 09:02:43;;;;;;;68.90;28.70;;;0.00;99.90;;;;;;4973699;28;20047;-80
2020/12/22 09:05:16;;;;;;;60.78;28.08;;;0.00;99.90;;;;;;4964750;28;20042;-77
2020/12/22 09:07:42;;;;;;;;;;;0.00;99.90;;;;;;4973042;28;20457;-77
2020/12/22 09:10:09;;;;;;;51.47;21.77;;;0.10;99.90;;;;;;4972079;28;20045;-79
2020/12/22 09:12:35;;;;;;;55.22;24.92;;;0.10;99.90;;;;;;4972079;28;20027;-79
2020/12/22 09:15:01;;;;;;;60.25;28.35;;;0.10;99.90;;;;;;4972078;28;20055;-80
2020/12/22 09:17:31;;;;;;;54.35;25.48;;;0.10;99.90;;;;;;4972040;28;20022;-79
2020/12/22 09:19:57;;;;;;;48.05;23.85;;;0.10;99.90;;;;;;4972197;28;20031;-80
2020/12/22 09:22:24;;;;;;;48.00;23.65;;;0.20;99.90;;;;;;4972460;28;20035;-80
2020/12/22 09:24:54;;;;;;;46.53;21.92;;;0.20;99.90;;;;;;4972468;28;20030;-79
2020/12/22 09:27:34;;;;;;;47.05;19.80;;;0.20;99.90;;;;;;4972222;28;20031;-79
2020/12/22 09:30:01;;;;;;;43.00;19.83;;;0.20;99.90;;;;;;4972173;28;20030;-80
2020/12/22 09:32:27;;;;;;;47.85;22.70;;;0.20;99.90;;;;;;4972084;28;20038;-79
2020/12/22 09:34:53;;;;;;;56.17;25.67;;;0.20;99.90;;;;;;4971853;28;20034;-80
2020/12/22 09:37:22;;;;;;;50.95;24.25;;;0.20;99.90;;;;;;4971977;28;20027;-79
2020/12/22 09:39:52;;;;;;;48.55;23.95;;;0.30;99.90;;;;;;4972166;28;20030;-78
2020/12/22 09:42:19;;;;;;;52.42;24.23;;;0.20;99.90;;;;;;4954300;28;20034;-80
2020/12/22 09:44:45;;;;;;;48.83;22.95;;;0.30;99.90;;;;;;4972217;28;20030;-78
2020/12/22 09:47:11;;;;;;;56.45;26.65;;;0.30;99.90;;;;;;4970595;28;20023;-79
2020/12/22 09:49:37;;;;;;;55.88;26.20;;;0.30;99.90;;;;;;4972084;28;20466;-79
2020/12/22 09:52:03;;;;;;;45.30;23.45;;;0.30;99.90;;;;;;4971558;28;20101;-80
2020/12/22 09:54:28;;;;;;;51.78;25.55;;;0.30;99.90;;;;;;4972172;28;20425;-79
2020/12/22 09:56:54;;;;;;;56.40;25.45;;;0.20;99.90;;;;;;4971861;28;20053;-81
2020/12/22 09:59:20;;;;;;;50.00;25.33;;;0.30;99.90;;;;;;4971304;28;20035;-79
2020/12/22 10:01:47;;;;;;;61.67;28.70;;;0.30;99.90;;;;;;4971294;28;20452;-79
2020/12/22 10:04:13;;;;;;;44.85;23.27;;;0.30;99.90;;;;;;4972003;28;20299;-81
2020/12/22 10:06:40;;;;;;;45.75;22.98;;;0.20;99.90;;;;;;4971738;28;20019;-80
2020/12/22 10:09:05;;;;;;;52.72;24.83;;;0.20;99.90;;;;;;4973941;28;20443;-79
2020/12/22 10:11:33;;;;;;;55.17;26.15;;;0.30;99.90;;;;;;4975446;28;20069;-80
2020/12/22 10:13:58;;;;;;;61.70;31.73;;;0.30;99.90;;;;;;4978024;28;20138;-80
2020/12/22 10:16:24;;;;;;;55.92;26.38;;;0.20;99.90;;;;;;4959201;28;20114;-78
2020/12/22 10:18:50;;;;;;;58.38;29.45;;;0.20;99.90;;;;;;4976414;28;20097;-78
2020/12/22 10:21:18;;;;;;;45.53;24.45;;;0.10;99.90;;;;;;4976142;28;20043;-79
2020/12/22 10:23:48;;;;;;;50.10;24.40;;;0.10;99.90;;;;;;4975056;28;20015;-78
2020/12/22 10:26:17;;;;;;;48.03;22.48;;;0.20;99.90;;;;;;4974109;28;20113;-78
2020/12/22 10:28:44;;;;;;;59.47;27.17;;;0.20;99.90;;;;;;4975180;28;20062;-77
2020/12/22 10:31:14;;;;;;;55.38;25.08;;;0.20;99.90;;;;;;4975341;28;20070;-76
2020/12/22 10:33:40;;;;;;;54.90;25.30;;;0.20;99.90;;;;;;4975707;28;20030;-77
2020/12/22 10:36:10;;;;;;;56.35;23.65;;;0.20;99.90;;;;;;4975476;28;20029;-76
2020/12/22 10:38:36;;;;;;;48.63;23.42;;;0.20;99.90;;;;;;4975414;28;20030;-77
2020/12/22 10:41:01;;;;;;;56.70;25.58;;;0.10;99.90;;;;;;4975665;28;20027;-78
2020/12/22 10:43:27;;;;;;;66.13;30.17;;;0.10;99.90;;;;;;4975117;28;20034;-77
2020/12/22 10:45:53;;;;;;;53.58;26.10;;;0.10;99.90;;;;;;4975586;28;20478;-76
2020/12/22 10:48:19;;;;;;;58.78;28.35;;;0.10;99.90;;;;;;4975279;28;20029;-77
2020/12/22 10:50:45;;;;;;;47.22;24.20;;;0.10;99.90;;;;;;4975292;28;20101;-76
2020/12/22 10:53:10;;;;;;;48.88;24.95;;;0.10;99.90;;;;;;4975038;28;20034;-76
2020/12/22 10:55:36;;;;;;;61.20;28.38;;;0.10;99.90;;;;;;4975316;28;20102;-77
2020/12/22 10:58:03;;;;;;;53.90;27.55;;;0.10;99.90;;;;;;4974889;28;20069;-77
2020/12/22 11:00:29;;;;;;;44.25;21.33;;;0.00;99.90;;;;;;4975360;28;20062;-77
2020/12/22 11:02:56;;;;;;;56.03;25.33;;;0.00;99.90;;;;;;4975434;28;20054;-78
2020/12/22 11:08:07;;;;;;;58.92;29.63;;;0.00;99.90;;;;;;4975072;28;20381;-78
2020/12/22 11:10:33;;;;;;;57.47;29.02;;;0.00;99.90;;;;;;4973853;28;20065;-77
2020/12/22 11:12:59;;;;;;;54.55;27.17;;;0.10;99.90;;;;;;4956409;28;20027;-77
2020/12/22 11:15:26;;;;;;;62.55;28.85;;;0.10;99.90;;;;;;4975329;28;20134;-79
2020/12/22 11:17:51;;;;;;;46.88;25.23;;;0.20;99.90;;;;;;4973928;28;20031;-77
2020/12/22 11:20:18;;;;;;;50.03;24.85;;;0.20;99.90;;;;;;4973813;28;20035;-77
2020/12/22 11:22:45;;;;;;;55.03;24.58;;;0.30;99.90;;;;;;4974785;28;20027;-77
2020/12/22 11:25:10;;;;;;;58.65;28.00;;;0.30;99.90;;;;;;4974925;28;20063;-77
2020/12/22 11:27:36;;;;;;;52.88;26.20;;;0.20;99.90;;;;;;4975037;28;20023;-78
2020/12/22 11:30:04;;;;;;;63.40;27.85;;;0.30;99.90;;;;;;4974722;28;20053;-77
2020/12/22 11:32:30;;;;;;;57.83;27.00;;;0.20;99.90;;;;;;4975227;28;20073;-77
2020/12/22 11:34:56;;;;;;;61.15;27.20;;;0.20;99.90;;;;;;4974526;28;20095;-76
2020/12/22 11:37:22;;;;;;;53.60;25.25;;;0.20;99.90;;;;;;4974833;28;20031;-78
2020/12/22 11:39:47;;;;;;;62.92;30.23;;;0.20;99.90;;;;;;4974568;28;20342;-78
2020/12/22 11:42:13;;;;;;;53.03;27.45;;;0.10;99.90;;;;;;4974731;28;20023;-78
2020/12/22 11:44:39;;;;;;;56.42;28.40;;;0.00;99.90;;;;;;4973742;28;20027;-79
2020/12/22 11:47:05;;;;;;;64.53;26.92;;;0.00;99.90;;;;;;4975647;28;20023;-80
2020/12/22 11:49:31;;;;;;;62.17;26.70;;;-0.10;99.90;;;;;;4958155;28;20477;-78
2020/12/22 11:51:59;;;;;;;60.33;27.38;;;0.00;99.90;;;;;;4974775;28;20023;-77
2020/12/22 11:54:25;;;;;;;69.47;31.70;;;-0.10;99.90;;;;;;4974795;28;20030;-78
2020/12/22 11:56:54;;;;;;;56.78;27.48;;;-0.10;99.90;;;;;;4974939;28;20030;-80
2020/12/22 11:59:20;;;;;;;56.67;25.52;;;-0.10;99.90;;;;;;4974415;28;20547;-78
2020/12/22 12:01:45;;;;;;;55.55;27.00;;;-0.10;99.90;;;;;;4956803;28;20027;-78
2020/12/22 12:04:12;;;;;;;65.97;28.48;;;-0.10;99.90;;;;;;4974130;28;20033;-78
2020/12/22 12:06:47;;;;;;;77.40;32.15;;;-0.10;99.90;;;;;;4974268;28;20138;-77
2020/12/22 12:09:13;;;;;;;53.05;25.15;;;-0.10;99.90;;;;;;4974743;28;20035;-75
2020/12/22 12:11:39;;;;;;;63.47;30.45;;;-0.10;99.90;;;;;;4972058;28;20477;-74
2020/12/22 12:14:05;;;;;;;59.38;29.15;;;-0.10;99.90;;;;;;4973790;28;20089;-76
2020/12/22 12:16:30;;;;;;;53.88;25.73;;;-0.10;99.90;;;;;;4974029;28;20030;-75
2020/12/22 12:18:56;;;;;;;61.05;28.95;;;-0.10;99.90;;;;;;4973832;28;20473;-76
2020/12/22 12:21:22;;;;;;;55.30;27.35;;;-0.10;99.90;;;;;;4973677;28;20374;-73
2020/12/22 12:23:48;;;;;;;50.42;24.50;;;-0.10;99.90;;;;;;4973696;28;20074;-81
2020/12/22 12:26:14;;;;;;;50.58;24.10;;;-0.10;99.90;;;;;;4973659;28;20034;-78
2020/12/22 12:28:41;;;;;;;56.15;29.30;;;-0.10;99.90;;;;;;4973501;28;20077;-80
2020/12/22 12:31:13;;;;;;;55.22;28.95;;;-0.10;99.90;;;;;;4973540;28;20023;-78
2020/12/22 12:33:38;;;;;;;65.05;32.35;;;-0.20;99.90;;;;;;4972191;28;20335;-76
2020/12/22 12:36:05;;;;;;;62.33;29.20;;;-0.20;99.90;;;;;;4972816;28;20038;-76